Darstellungsparameter: Aktuell verwendete Einstellungen:
Skalierung der Graphiken ... ?
xyx+y,   Skalierungsfaktor:      Skalierung: Modus: x, Faktor: 1
Darstellungszeitraum ... ?
Vom - - bis: - -   Zeitraum: 23.05.2003 - 23.05.2003
Min/Max/Avg-Anzeige ... ?
Zeige MMA aktuell
Zeige MMA Monat
Zeige MMA alles
Zeige --A aktuell
Zeige --A Monat
Zeige --A alles
Keine MMA-Anzeige
MMA:
Minimum Maximum Average (ber die Originaldaten)
MMA-Basis: 23.02.2003 - 30.09.2000
Quicknavigation für Darstellung... ?
Tage:      1T, 2T, 3T, 5T -1T -2T -3T -5T +1T +2T +3T +5T
Wochen: 1W, 2W, 3W -1W -2W -3W +1W +2W +3W
Monate: 1M, 3M, 6M -1M -3M -6M +1M +3M +6M
Jahre:    1J, 3J, 5J, 10J -1J -3J -5J -10J +1J +3J +5J +10J
Nutze für die Darstellung ... ?
Originaldaten oder Mittelwerte auf ...
Stundenbasis Tagesbasis Wochenbasis
Monatsbasis Jahresbasis      Datenbasis: Original-Daten
Darstellen als:
Statistik (Auto) Statistik J:M      Darstellung:
Zur Graphik,    zurück zur Übersicht aller Sensoren.
 
Tabellarische Datenbersicht: ?
 
Sensor: Nr:Datum:Temp:Abs-Feuchte:Windchill:Wind:
Aussen-T/F 1 23-05-2003 00:09:02 14.5 C 10.82 g/m*3 14.5 C 0 km/h
2 23-05-2003 00:19:02 14.7 C 10.95 g/m*3 14.7 C 0 km/h
3 23-05-2003 00:29:02 14.6 C 10.89 g/m*3 14.6 C 0 km/h
4 23-05-2003 00:39:02 14.5 C 10.82 g/m*3 14.5 C 0 km/h
5 23-05-2003 00:49:02 14.5 C 10.82 g/m*3 14.5 C 0 km/h
6 23-05-2003 00:59:02 14.4 C 10.88 g/m*3 14.4 C 0 km/h
7 23-05-2003 01:09:02 14.4 C 10.88 g/m*3 14.4 C 0 km/h
8 23-05-2003 01:29:02 14.6 C 11.01 g/m*3 14.6 C 0 km/h
9 23-05-2003 01:39:02 14.6 C 10.89 g/m*3 14.6 C 0 km/h
10 23-05-2003 01:49:02 14.6 C 10.89 g/m*3 14.6 C 0 km/h
11 23-05-2003 01:59:02 14.6 C 10.89 g/m*3 14.6 C 0 km/h
12 23-05-2003 02:09:02 14.6 C 10.89 g/m*3 14.6 C 0 km/h
13 23-05-2003 02:19:02 14.5 C 10.82 g/m*3 14.5 C 0 km/h
14 23-05-2003 02:29:02 14.5 C 10.94 g/m*3 14.5 C 0 km/h
15 23-05-2003 02:39:02 14.5 C 10.94 g/m*3 14.5 C 0 km/h
16 23-05-2003 02:49:02 14.5 C 10.94 g/m*3 14.5 C 0 km/h
17 23-05-2003 02:59:02 14.5 C 10.94 g/m*3 14.5 C 0 km/h
18 23-05-2003 03:09:02 14.8 C 11.02 g/m*3 14.8 C 0 km/h
19 23-05-2003 03:19:02 15.1 C 10.84 g/m*3 15.1 C 0 km/h
20 23-05-2003 03:29:02 15.1 C 10.84 g/m*3 15.1 C 0 km/h
21 23-05-2003 03:39:02 15.2 C 10.9 g/m*3 15.2 C 0 km/h
22 23-05-2003 03:49:02 15.4 C 11.04 g/m*3 15.4 C 0 km/h
23 23-05-2003 03:59:02 15.3 C 10.97 g/m*3 15.3 C 0 km/h
24 23-05-2003 04:09:02 15.5 C 11.1 g/m*3 15.5 C 0 km/h
25 23-05-2003 04:19:02 15.6 C 11.04 g/m*3 15.6 C 0 km/h
Sensor: Nr:Datum:Temp:Abs-Feuchte:Windchill:Wind:
Aussen-T/F 26 23-05-2003 04:29:02 15.5 C 10.97 g/m*3 15.5 C 0 km/h
27 23-05-2003 04:39:02 15.5 C 10.97 g/m*3 15.5 C 0 km/h
28 23-05-2003 04:49:02 15.5 C 10.97 g/m*3 15.5 C 0 km/h
29 23-05-2003 04:59:02 15.4 C 11.04 g/m*3 15.4 C 0 km/h
30 23-05-2003 05:09:02 15.6 C 11.04 g/m*3 15.6 C 0 km/h
31 23-05-2003 05:19:02 15.6 C 10.91 g/m*3 15.6 C 0 km/h
32 23-05-2003 05:29:02 15.7 C 10.84 g/m*3 15.7 C 0 km/h
33 23-05-2003 05:39:02 15.6 C 10.64 g/m*3 15.6 C 0 km/h
34 23-05-2003 05:49:02 15.6 C 10.64 g/m*3 15.6 C 0 km/h
35 23-05-2003 05:59:02 15.5 C 10.57 g/m*3 15.5 C 0 km/h
36 23-05-2003 06:09:02 15.6 C 10.64 g/m*3 15.6 C 0 km/h
37 23-05-2003 06:19:02 15.6 C 10.51 g/m*3 15.6 C 0 km/h
38 23-05-2003 06:29:02 15.6 C 10.51 g/m*3 15.6 C 0 km/h
39 23-05-2003 06:39:02 15.6 C 10.51 g/m*3 15.6 C 0 km/h
40 23-05-2003 06:49:02 15.8 C 10.5 g/m*3 15.8 C 0 km/h
41 23-05-2003 06:59:02 15.8 C 10.5 g/m*3 15.8 C 0 km/h
42 23-05-2003 07:09:02 15.9 C 10.43 g/m*3 15.9 C 0 km/h
43 23-05-2003 07:19:02 16 C 10.35 g/m*3 16 C 0 km/h
44 23-05-2003 07:29:02 16 C 10.35 g/m*3 16 C 0 km/h
45 23-05-2003 07:39:01 15.9 C 10.43 g/m*3 15.9 C 0 km/h
46 23-05-2003 07:49:01 16 C 10.35 g/m*3 16 C 0 km/h
47 23-05-2003 07:59:01 16 C 10.08 g/m*3 16 C 0 km/h
48 23-05-2003 08:09:08 16.2 C 9.93 g/m*3 16.2 C 0 km/h
49 23-05-2003 08:19:08 16.4 C 9.91 g/m*3 16.4 C 0 km/h
50 23-05-2003 08:29:08 16.3 C 9.85 g/m*3 16.3 C 0 km/h
Sensor: Nr:Datum:Temp:Abs-Feuchte:Windchill:Wind:
Aussen-T/F 51 23-05-2003 08:39:01 16.4 C 9.77 g/m*3 16.4 C 0 km/h
52 23-05-2003 08:49:01 16.6 C 9.89 g/m*3 16.6 C 0 km/h
53 23-05-2003 08:59:01 16.8 C 9.72 g/m*3 16.8 C 0 km/h
54 23-05-2003 09:09:01 17.1 C 9.46 g/m*3 17.1 C 0 km/h
55 23-05-2003 09:19:01 17.3 C 8.99 g/m*3 17.3 C 0 km/h
56 23-05-2003 09:29:01 17.5 C 9.09 g/m*3 17.5 C 0 km/h
57 23-05-2003 09:39:01 17.7 C 9.2 g/m*3 17.7 C 0 km/h
58 23-05-2003 09:49:01 17.8 C 9.11 g/m*3 17.8 C 0 km/h
59 23-05-2003 09:59:01 18.1 C 9.27 g/m*3 18.1 C 0 km/h
60 23-05-2003 10:09:01 18.1 C 9.27 g/m*3 18.1 C 0 km/h
61 23-05-2003 10:19:01 18.2 C 9.48 g/m*3 18.2 C 0 km/h
62 23-05-2003 10:29:01 18.6 C 9.55 g/m*3 18.6 C 0 km/h
63 23-05-2003 10:39:01 18.9 C 8.91 g/m*3 18.9 C 0 km/h
64 23-05-2003 10:49:01 18.8 C 8.54 g/m*3 18.8 C 0 km/h
65 23-05-2003 10:59:01 18.8 C 8.05 g/m*3 18.8 C 0 km/h
66 23-05-2003 11:09:02 18.8 C 8.05 g/m*3 18.8 C 0 km/h
67 23-05-2003 11:19:02 19.1 C 7.7 g/m*3 19.1 C 0 km/h
68 23-05-2003 11:29:02 19.7 C 7.81 g/m*3 19.7 C 0 km/h
69 23-05-2003 11:39:01 19.5 C 7.55 g/m*3 19.5 C 0 km/h
70 23-05-2003 11:49:01 19.9 C 7.56 g/m*3 19.9 C 0 km/h
71 23-05-2003 11:59:01 20.5 C 7.47 g/m*3 20.5 C 0 km/h
72 23-05-2003 12:09:02 20.5 C 7.3 g/m*3 20.5 C 0 km/h
73 23-05-2003 12:19:02 20.5 C 7.47 g/m*3 20.5 C 0 km/h
74 23-05-2003 12:29:02 20.3 C 7.21 g/m*3 20.3 C 0 km/h
75 23-05-2003 12:39:00 20.7 C 7.38 g/m*3 20.7 C 0 km/h
Sensor: Nr:Datum:Temp:Abs-Feuchte:Windchill:Wind:
Aussen-T/F 76 23-05-2003 12:49:00 20.8 C 7.24 g/m*3 20.8 C 0 km/h
77 23-05-2003 12:59:00 21.3 C 7.27 g/m*3 21.3 C 0 km/h
78 23-05-2003 13:09:02 21.7 C 7.25 g/m*3 21.7 C 0 km/h
79 23-05-2003 13:19:02 22 C 6.99 g/m*3 22 C 0 km/h
80 23-05-2003 13:29:02 22.2 C 6.87 g/m*3 22.2 C 0 km/h
81 23-05-2003 13:39:01 22.2 C 6.48 g/m*3 22.2 C 0 km/h
82 23-05-2003 13:49:01 22.4 C 6.75 g/m*3 22.4 C 0 km/h
83 23-05-2003 13:59:01 22.3 C 6.71 g/m*3 22.3 C 0 km/h
84 23-05-2003 14:09:00 22.8 C 6.91 g/m*3 22.8 C 0 km/h
85 23-05-2003 14:19:00 22.4 C 6.55 g/m*3 22.4 C 0 km/h
86 23-05-2003 14:29:00 22.5 C 6.59 g/m*3 22.5 C 0 km/h
87 23-05-2003 14:39:00 22.8 C 6.71 g/m*3 22.8 C 0 km/h
88 23-05-2003 14:49:00 22.4 C 6.16 g/m*3 22.4 C 0 km/h
89 23-05-2003 14:59:00 22.9 C 6.74 g/m*3 22.9 C 0 km/h
90 23-05-2003 15:09:00 23.3 C 6.48 g/m*3 23.3 C 0 km/h
91 23-05-2003 15:19:00 23.8 C 6.67 g/m*3 23.8 C 0 km/h
92 23-05-2003 15:29:00 24.3 C 6.86 g/m*3 24.3 C 0 km/h
93 23-05-2003 15:39:01 23.8 C 6.67 g/m*3 23.8 C 0 km/h
94 23-05-2003 15:49:01 24.1 C 6.56 g/m*3 24.1 C 0 km/h
95 23-05-2003 15:59:01 23.8 C 6.88 g/m*3 23.8 C 0 km/h
96 23-05-2003 16:09:01 24.1 C 6.78 g/m*3 24.1 C 0 km/h
97 23-05-2003 16:19:01 24.1 C 7 g/m*3 24.1 C 0 km/h
98 23-05-2003 16:29:01 24 C 6.53 g/m*3 24 C 0 km/h
99 23-05-2003 16:39:01 23.6 C 6.59 g/m*3 23.6 C 0 km/h
100 23-05-2003 16:49:01 23.4 C 6.52 g/m*3 23.4 C 0 km/h
Sensor: Nr:Datum:Temp:Abs-Feuchte:Windchill:Wind:
Aussen-T/F 101 23-05-2003 16:59:01 23.5 C 7.4 g/m*3 23.5 C 0 km/h
102 23-05-2003 17:09:01 24.4 C 6.9 g/m*3 24.4 C 0 km/h
103 23-05-2003 17:19:01 24.6 C 6.75 g/m*3 24.6 C 0 km/h
104 23-05-2003 17:29:01 25.2 C 6.75 g/m*3 25.2 C 0 km/h
105 23-05-2003 17:39:01 25.3 C 7.02 g/m*3 25.3 C 0 km/h
106 23-05-2003 17:49:01 25.6 C 6.19 g/m*3 25.6 C 0 km/h
107 23-05-2003 17:59:01 25.3 C 6.09 g/m*3 25.3 C 0 km/h
108 23-05-2003 18:09:01 25.7 C 6.22 g/m*3 25.7 C 0 km/h
109 23-05-2003 18:19:01 24.3 C 5.75 g/m*3 24.3 C 0 km/h
110 23-05-2003 18:29:01 24.2 C 5.5 g/m*3 24.2 C 0 km/h
111 23-05-2003 18:39:02 24.1 C 5.47 g/m*3 24.1 C 0 km/h
112 23-05-2003 18:49:02 24.1 C 5.47 g/m*3 24.1 C 0 km/h
113 23-05-2003 18:59:02 24.8 C 5.69 g/m*3 24.8 C 0 km/h
114 23-05-2003 19:09:02 24.7 C 5.66 g/m*3 24.7 C 0 km/h
115 23-05-2003 19:19:02 24.9 C 5.72 g/m*3 24.9 C 0 km/h
116 23-05-2003 19:29:02 25.5 C 5.92 g/m*3 25.5 C 0 km/h
117 23-05-2003 19:39:01 24.5 C 5.82 g/m*3 24.5 C 0 km/h
118 23-05-2003 19:49:01 24.6 C 6.53 g/m*3 24.6 C 0 km/h
119 23-05-2003 19:59:01 24.2 C 7.04 g/m*3 24.2 C 0 km/h
120 23-05-2003 20:09:03 23.3 C 6.9 g/m*3 23.3 C 0 km/h
121 23-05-2003 20:19:03 22.9 C 7.36 g/m*3 22.9 C 0 km/h
122 23-05-2003 20:29:03 22.5 C 7.19 g/m*3 22.5 C 0 km/h
123 23-05-2003 20:39:01 21.9 C 7.53 g/m*3 21.9 C 0 km/h
124 23-05-2003 20:49:01 21.2 C 7.6 g/m*3 21.2 C 0 km/h
125 23-05-2003 20:59:01 20.4 C 7.61 g/m*3 20.4 C 0 km/h
Sensor: Nr:Datum:Temp:Abs-Feuchte:Windchill:Wind:
Aussen-T/F 126 23-05-2003 21:09:02 19.7 C 7.64 g/m*3 19.7 C 0 km/h
127 23-05-2003 21:19:02 19.1 C 7.7 g/m*3 19.1 C 0 km/h
128 23-05-2003 21:29:02 18.6 C 8.12 g/m*3 18.6 C 0 km/h
129 23-05-2003 21:39:01 18.2 C 7.46 g/m*3 18.2 C 0 km/h
130 23-05-2003 21:49:01 17.9 C 7.79 g/m*3 17.9 C 0 km/h
131 23-05-2003 21:59:01 17.6 C 7.8 g/m*3 17.6 C 0 km/h
132 23-05-2003 22:09:01 17.3 C 7.51 g/m*3 17.3 C 0 km/h
133 23-05-2003 22:19:01 17 C 7.67 g/m*3 17 C 0 km/h
134 23-05-2003 22:29:01 17 C 7.67 g/m*3 17 C 0 km/h
135 23-05-2003 22:39:00 16.4 C 7.96 g/m*3 16.4 C 0 km/h
136 23-05-2003 22:49:00 16.8 C 8.01 g/m*3 16.8 C 0 km/h
137 23-05-2003 22:59:00 16.8 C 7.86 g/m*3 16.8 C 0 km/h
138 23-05-2003 23:09:00 16.6 C 8.33 g/m*3 16.6 C 0 km/h
139 23-05-2003 23:19:00 16.3 C 8.46 g/m*3 16.3 C 0 km/h
140 23-05-2003 23:29:00 16.2 C 8.27 g/m*3 16.2 C 0 km/h
141 23-05-2003 23:39:01 16.1 C 8.09 g/m*3 16.1 C 0 km/h
142 23-05-2003 23:49:01 16 C 8.45 g/m*3 16 C 0 km/h
143 23-05-2003 23:59:01 16 C 8.31 g/m*3 16 C 0 km/h

Legende:
   Min
   Max


Maximal/Minimal-Werte vom 23.02.2003 - 30.09.2000

Sensor Min Max Avg
Temp
(Aussen-T/F)
°C
-- 
°C 0 °C

Die Daten stammen von einer Davis Vantage Pro 2 Wetter-Station und werden unter Linux mit der Software wview2wettercgi und aufbereitet. Alle Angaben erfolgen ohne Gewähr für ihre Vollständigkeit oder Richtigkeit.
Kontakt: Rainer Krienke krienke@uni-koblenz.de . Meine Webseiten an der Uni Koblenz oder privat.
Version: $Revision: 0.78 $